createdAt,value
2023-03-11T16:54:50.196Z,29.98
2023-03-11T16:57:20.144Z,12.20
2023-03-11T16:59:49.915Z,12.98
2023-03-11T17:02:17.965Z,13.13
2023-03-11T17:04:46.042Z,12.00
2023-03-11T17:07:14.023Z,12.82
2023-03-11T17:09:42.040Z,15.15
2023-03-11T17:12:13.501Z,14.00
2023-03-11T17:14:41.480Z,14.50
2023-03-11T17:17:09.859Z,14.73
2023-03-11T17:19:38.757Z,13.90
2023-03-11T17:22:07.361Z,12.75
2023-03-11T17:24:35.857Z,14.50
2023-03-11T17:27:07.406Z,14.63
2023-03-11T17:29:37.338Z,15.02
2023-03-11T17:32:06.783Z,15.23
2023-03-11T17:34:34.820Z,16.67
2023-03-11T17:37:05.143Z,15.50
2023-03-11T17:39:33.170Z,17.23
2023-03-11T17:42:01.120Z,17.25
2023-03-11T17:44:33.291Z,18.17
2023-03-11T17:47:09.097Z,16.75
2023-03-11T17:49:38.134Z,17.98
2023-03-11T17:52:06.031Z,17.70
2023-03-11T17:54:33.893Z,19.58
2023-03-11T17:57:01.906Z,18.50
2023-03-11T17:59:30.119Z,20.13
2023-03-11T18:01:58.411Z,20.42
2023-03-11T18:04:26.229Z,20.17
2023-03-11T18:06:54.763Z,20.98
2023-03-11T18:09:22.997Z,20.73
2023-03-11T18:11:51.218Z,20.30
2023-03-11T18:14:19.051Z,20.33
2023-03-11T18:16:46.998Z,21.70
2023-03-11T18:19:14.853Z,21.95
2023-03-11T18:21:42.878Z,22.27
2023-03-11T18:24:10.949Z,21.08
2023-03-11T18:26:38.943Z,19.67
2023-03-11T18:29:07.047Z,21.05
2023-03-11T18:31:35.466Z,20.10
2023-03-11T18:34:04.435Z,21.40
2023-03-11T18:36:34.068Z,20.45
2023-03-11T18:39:02.516Z,21.90
2023-03-11T18:41:31.902Z,22.20
2023-03-11T18:44:00.175Z,21.17
2023-03-11T18:46:28.919Z,21.10
2023-03-11T18:49:00.276Z,21.92
2023-03-11T18:51:29.165Z,20.70
2023-03-11T18:53:58.830Z,22.55
2023-03-11T18:56:26.880Z,23.35
2023-03-11T18:58:56.028Z,22.70
2023-03-11T19:01:23.968Z,22.65
2023-03-11T19:03:53.649Z,21.67
2023-03-11T19:06:21.983Z,22.13
2023-03-11T19:08:50.035Z,22.85
2023-03-11T19:11:19.141Z,21.08
2023-03-11T19:13:48.061Z,21.33
2023-03-11T19:16:23.206Z,21.10
2023-03-11T19:18:53.830Z,19.55
2023-03-11T19:21:22.090Z,18.77
2023-03-11T19:23:53.013Z,20.50
2023-03-11T19:26:25.732Z,19.15
2023-03-11T19:28:58.840Z,18.10
2023-03-11T19:31:27.231Z,16.85
2023-03-11T19:33:55.327Z,17.13
2023-03-11T19:36:23.816Z,24.92
2023-03-11T19:38:51.964Z,18.00
2023-03-11T19:41:20.340Z,19.33
2023-03-11T19:43:49.058Z,20.63
2023-03-11T19:46:18.330Z,21.55
2023-03-11T19:48:46.299Z,22.92
2023-03-11T19:51:15.955Z,23.50
2023-03-11T19:53:43.934Z,23.92
2023-03-11T19:56:11.946Z,24.27
2023-03-11T19:58:42.555Z,25.15
2023-03-11T20:01:20.373Z,25.30
2023-03-11T20:03:48.445Z,25.92
2023-03-11T20:06:20.823Z,29.83
2023-03-11T20:08:48.994Z,29.13
2023-03-11T20:11:17.100Z,30.75
2023-03-11T20:13:44.961Z,30.88
2023-03-11T20:16:15.546Z,29.83
2023-03-11T20:18:44.557Z,30.27
2023-03-11T20:21:13.381Z,30.58
2023-03-11T20:23:41.554Z,29.50
2023-03-11T20:26:12.174Z,31.90
2023-03-11T20:28:40.129Z,30.20
2023-03-11T20:31:09.579Z,31.38
2023-03-11T20:33:38.242Z,27.60
2023-03-11T20:36:10.820Z,28.88
2023-03-11T20:38:38.831Z,20.38
2023-03-11T20:41:09.554Z,27.63
2023-03-11T20:43:38.374Z,27.50
2023-03-11T20:46:07.043Z,25.58
2023-03-11T20:48:35.776Z,25.05
2023-03-11T20:51:07.917Z,23.35
2023-03-11T20:53:36.020Z,24.40
2023-03-11T20:56:11.574Z,22.27
2023-03-11T20:58:39.742Z,21.55
2023-03-11T21:01:11.875Z,20.73
2023-03-11T21:03:39.881Z,20.67
2023-03-11T21:06:13.877Z,20.60
2023-03-11T21:08:41.910Z,18.70
2023-03-11T21:11:10.048Z,18.10
2023-03-11T21:13:38.139Z,18.50
2023-03-11T21:16:07.376Z,16.90
2023-03-11T21:18:35.522Z,15.68
2023-03-11T21:21:04.402Z,16.10
2023-03-11T21:23:32.405Z,13.60
2023-03-11T21:26:01.280Z,13.80
2023-03-11T21:28:29.294Z,13.52
2023-03-11T21:31:01.088Z,12.43
2023-03-11T21:33:29.285Z,11.70
2023-03-11T21:35:59.389Z,12.18
2023-03-11T21:38:29.015Z,9.75
2023-03-11T21:41:06.875Z,10.43
2023-03-11T21:43:34.945Z,10.15
2023-03-11T21:46:04.016Z,10.15
2023-03-11T21:48:32.198Z,8.95
2023-03-11T21:51:02.621Z,9.52
2023-03-11T21:53:31.440Z,9.85
2023-03-11T21:56:00.016Z,8.50
2023-03-11T21:58:31.049Z,8.27
2023-03-11T22:00:58.989Z,8.38
2023-03-11T22:03:27.186Z,7.57
2023-03-11T22:06:02.941Z,8.45
2023-03-11T22:08:30.949Z,7.75
2023-03-11T22:10:59.274Z,9.13
2023-03-11T22:13:27.531Z,7.57
2023-03-11T22:15:55.788Z,7.95
2023-03-11T22:18:23.677Z,8.23
2023-03-11T22:20:52.362Z,7.57
2023-03-11T22:23:20.356Z,7.95
2023-03-11T22:25:48.391Z,16.27
2023-03-11T22:28:16.712Z,9.38
2023-03-11T22:30:44.804Z,7.63
2023-03-11T22:33:12.857Z,7.00
2023-03-11T22:35:41.113Z,6.82
2023-03-11T22:38:09.072Z,7.65
2023-03-11T22:40:36.890Z,7.35
2023-03-11T22:43:04.917Z,6.38
2023-03-11T22:45:32.824Z,7.30
2023-03-11T22:48:01.107Z,6.60
2023-03-11T22:50:29.261Z,7.20
2023-03-11T22:52:57.128Z,6.55
2023-03-11T22:55:25.277Z,5.78
2023-03-11T22:57:53.145Z,6.03
2023-03-11T23:00:22.273Z,5.88
2023-03-11T23:02:53.576Z,4.80
2023-03-11T23:05:21.471Z,4.95
2023-03-11T23:07:49.862Z,4.50
2023-03-11T23:10:21.261Z,4.72
2023-03-11T23:12:49.446Z,5.18
2023-03-11T23:15:18.845Z,4.32
2023-03-11T23:17:47.027Z,3.72
2023-03-11T23:20:15.727Z,4.32
2023-03-11T23:22:44.087Z,3.95
2023-03-11T23:25:13.981Z,3.92
2023-03-11T23:27:42.689Z,4.22
2023-03-11T23:30:12.554Z,3.95
2023-03-11T23:32:40.459Z,4.25
2023-03-11T23:35:08.745Z,4.35
2023-03-11T23:37:36.671Z,3.72
2023-03-11T23:40:05.177Z,3.63
2023-03-11T23:42:34.886Z,3.35
2023-03-11T23:45:02.719Z,3.78
2023-03-11T23:47:31.876Z,2.72
2023-03-11T23:49:59.836Z,3.53
2023-03-11T23:52:27.695Z,3.53
2023-03-11T23:54:56.152Z,3.13
2023-03-11T23:57:24.180Z,3.42
2023-03-11T23:59:52.114Z,3.05
